Kenmore, Washington
Current Conditions -  °F | °C
As of 4:53 AM on Saturday 27 Dec 2014 (Local Time) from KPAE Reporting Station
Light Rain Light Rain  
Wind Chill: 34°   Ceiling: 1100
Heat Index: 40°   Visibility: 8mi
Dew Point: 38°   Wind: 9mph
Humidity: 93%   Direction: 150°SSE
Pressure: 30.19"   Gusts: NA
Location:  47.76°N, 122.24°W
Report Text: KPAE 271253Z AUTO 15008KT 8SM -RA SCT005 OVC011 04/03 A3019 RMK AO2 SLP228 P0002 T00440033
Loading
Personal Weather Stations






























Interactive Weather Map New forecast layout! Learn more

10-Day Weather Forecast

Advertisements
Track Severe Weather on mobile